Saint Peters, Prince Edward Island

10:57 AM ADT on September 02, 2015 (GMT -0300)
Dingwells Mills | | Change Station
CLOSE
Current Station
Personal Weather Station
Location: Saint Peters Bay, PRINCE EDWARD ISLAND
Elevation: 26 ft
Nearby Weather Stations

Elev 26 ft 46.36 °N, 62.43 °W | Updated 19 seconds ago

Overcast
Overcast
65.9 °F
Feels Like 65.9 °F
N
2.0
Wind Variable Wind from SW
Gusts 4.0 mph

Today is forecast to be nearly the same temperature as yesterday.

Today
High -- | Low -- °F
--% Chance of Precip.
Yesterday
High -- | Low -- °F
Precip. -- in
6:31 AM 7:47 PM
Waning Gibbous, 80% visible
Pressure 29.90 in
Visibility 15.0 miles
Clouds Few 18000 ft
Mostly Cloudy 21000 ft
Overcast 26000 ft
Dew Point 58 °F
Humidity 75%
Rainfall 0.00 in
Snow Depth Not available.
UV 1 out of 12
Pollen Not available.
Air Quality Not available.
Flu Activity Not available.
METAR CYYG 021300Z 19011KT 15SM FEW180 BKN210 OVC260 17/14 A2989 RMK AC1CC4CI3 SLP124 DENSITY ALT 500FT
Pressure 29.90 in
Visibility 15.0 miles
Clouds Few 18000 ft
Mostly Cloudy 21000 ft
Overcast 26000 ft
Dew Point 58 °F
Humidity 75%
Rainfall 0.00 in
Snow Depth Not available.
UV 1 out of 12
Pollen Not available.
Air Quality Not available.
Flu Activity Not available.
METAR CYYG 021300Z 19011KT 15SM FEW180 BKN210 OVC260 17/14 A2989 RMK AC1CC4CI3 SLP124 DENSITY ALT 500FT

10-Day Weather Forecast

×

Almanac

Astronomy

Sep. 02, 2015 Rise Set
Actual Time
Civil Twilight
Nautical Twilight
Astronomical Twilight
Moon
Length of Visible Light
Length of Day
Tomorrow will be .
, % of the Moon is Illuminated

Today's Extremes

Country Highs Country Lows

Community

WunderPhotos

Upload Photos

1,851,754 photos uploaded!

WunderBlogs® & News

Nearby

Air Quality

  Air Quality AQ Index Pollutant
Not available.

Snow Depth

Station Depth Elevation

Earthquake Activity

City Distance Mag. Time & Date
Minimum magnitude displayed is 2.5.

Coastal Water Temperatures

Place Temperature

Stations

Nearby Weather Stations

Station Location Temp. Windchill Dew Point Humidity Wind Precip. Elev Updated Type